sensor_id;sensor_type;location;lat;lon;timestamp;P1;durP1;ratioP1;P2;durP2;ratioP2
33357;SDS011;19717;42.614;23.418;2023-08-07T00:00:34;0.30;;;0.30;;
33357;SDS011;19717;42.614;23.418;2023-08-07T00:03:00;0.38;;;0.38;;
33357;SDS011;19717;42.614;23.418;2023-08-07T00:05:27;0.30;;;0.30;;
33357;SDS011;19717;42.614;23.418;2023-08-07T00:07:53;0.30;;;0.30;;
33357;SDS011;19717;42.614;23.418;2023-08-07T00:10:19;0.30;;;0.30;;
33357;SDS011;19717;42.614;23.418;2023-08-07T00:12:45;0.38;;;0.38;;
33357;SDS011;19717;42.614;23.418;2023-08-07T00:15:11;0.35;;;0.35;;
33357;SDS011;19717;42.614;23.418;2023-08-07T00:17:37;0.32;;;0.32;;
33357;SDS011;19717;42.614;23.418;2023-08-07T00:20:04;0.30;;;0.30;;
33357;SDS011;19717;42.614;23.418;2023-08-07T00:22:32;0.32;;;0.32;;
33357;SDS011;19717;42.614;23.418;2023-08-07T00:24:58;0.40;;;0.40;;
33357;SDS011;19717;42.614;23.418;2023-08-07T00:27:24;0.40;;;0.40;;
33357;SDS011;19717;42.614;23.418;2023-08-07T00:29:50;0.40;;;0.40;;
33357;SDS011;19717;42.614;23.418;2023-08-07T00:32:16;0.40;;;0.40;;
33357;SDS011;19717;42.614;23.418;2023-08-07T00:34:42;0.40;;;0.40;;
33357;SDS011;19717;42.614;23.418;2023-08-07T00:37:08;0.40;;;0.40;;
33357;SDS011;19717;42.614;23.418;2023-08-07T00:39:34;0.40;;;0.40;;
33357;SDS011;19717;42.614;23.418;2023-08-07T00:42:00;0.40;;;0.40;;
33357;SDS011;19717;42.614;23.418;2023-08-07T00:44:26;0.30;;;0.30;;
33357;SDS011;19717;42.614;23.418;2023-08-07T00:46:53;0.40;;;0.40;;
33357;SDS011;19717;42.614;23.418;2023-08-07T00:49:19;0.40;;;0.40;;
33357;SDS011;19717;42.614;23.418;2023-08-07T00:51:46;0.45;;;0.45;;
33357;SDS011;19717;42.614;23.418;2023-08-07T00:54:14;0.45;;;0.45;;
33357;SDS011;19717;42.614;23.418;2023-08-07T00:56:40;0.40;;;0.40;;
33357;SDS011;19717;42.614;23.418;2023-08-07T00:59:07;0.73;;;0.52;;
33357;SDS011;19717;42.614;23.418;2023-08-07T01:01:33;0.50;;;0.50;;
33357;SDS011;19717;42.614;23.418;2023-08-07T01:03:59;0.40;;;0.40;;
33357;SDS011;19717;42.614;23.418;2023-08-07T01:06:25;0.40;;;0.40;;
33357;SDS011;19717;42.614;23.418;2023-08-07T01:08:51;0.40;;;0.40;;
33357;SDS011;19717;42.614;23.418;2023-08-07T01:11:22;0.40;;;0.40;;
33357;SDS011;19717;42.614;23.418;2023-08-07T01:14:00;0.40;;;0.40;;
33357;SDS011;19717;42.614;23.418;2023-08-07T01:18:56;0.40;;;0.40;;
33357;SDS011;19717;42.614;23.418;2023-08-07T01:21:23;0.50;;;0.50;;
33357;SDS011;19717;42.614;23.418;2023-08-07T01:23:49;0.40;;;0.40;;
33357;SDS011;19717;42.614;23.418;2023-08-07T01:26:16;0.50;;;0.50;;
33357;SDS011;19717;42.614;23.418;2023-08-07T01:28:46;0.50;;;0.50;;
33357;SDS011;19717;42.614;23.418;2023-08-07T01:31:14;0.50;;;0.50;;
33357;SDS011;19717;42.614;23.418;2023-08-07T01:33:48;0.45;;;0.45;;
33357;SDS011;19717;42.614;23.418;2023-08-07T01:36:16;0.50;;;0.50;;
33357;SDS011;19717;42.614;23.418;2023-08-07T01:38:43;0.47;;;0.47;;
33357;SDS011;19717;42.614;23.418;2023-08-07T01:41:09;0.40;;;0.40;;
33357;SDS011;19717;42.614;23.418;2023-08-07T01:43:35;0.50;;;0.50;;
33357;SDS011;19717;42.614;23.418;2023-08-07T01:46:01;0.50;;;0.50;;
33357;SDS011;19717;42.614;23.418;2023-08-07T01:48:27;0.50;;;0.50;;
33357;SDS011;19717;42.614;23.418;2023-08-07T01:50:53;0.50;;;0.50;;
33357;SDS011;19717;42.614;23.418;2023-08-07T01:53:20;0.77;;;0.55;;
33357;SDS011;19717;42.614;23.418;2023-08-07T01:55:46;0.82;;;0.60;;
33357;SDS011;19717;42.614;23.418;2023-08-07T01:58:12;0.50;;;0.50;;
33357;SDS011;19717;42.614;23.418;2023-08-07T02:00:38;0.63;;;0.55;;
33357;SDS011;19717;42.614;23.418;2023-08-07T02:03:04;0.60;;;0.60;;
33357;SDS011;19717;42.614;23.418;2023-08-07T02:05:30;0.65;;;0.60;;
33357;SDS011;19717;42.614;23.418;2023-08-07T02:07:56;0.68;;;0.50;;
33357;SDS011;19717;42.614;23.418;2023-08-07T02:10:22;0.45;;;0.45;;
33357;SDS011;19717;42.614;23.418;2023-08-07T02:12:49;0.50;;;0.50;;
33357;SDS011;19717;42.614;23.418;2023-08-07T02:15:15;0.60;;;0.60;;
33357;SDS011;19717;42.614;23.418;2023-08-07T02:17:41;0.70;;;0.70;;
33357;SDS011;19717;42.614;23.418;2023-08-07T02:20:07;0.60;;;0.60;;
33357;SDS011;19717;42.614;23.418;2023-08-07T02:22:33;0.60;;;0.60;;
33357;SDS011;19717;42.614;23.418;2023-08-07T02:24:59;3.80;;;0.80;;
33357;SDS011;19717;42.614;23.418;2023-08-07T02:27:25;0.50;;;0.50;;
33357;SDS011;19717;42.614;23.418;2023-08-07T02:29:51;0.60;;;0.60;;
33357;SDS011;19717;42.614;23.418;2023-08-07T02:32:19;0.60;;;0.60;;
33357;SDS011;19717;42.614;23.418;2023-08-07T02:34:45;1.38;;;0.55;;
33357;SDS011;19717;42.614;23.418;2023-08-07T02:37:11;0.60;;;0.60;;
33357;SDS011;19717;42.614;23.418;2023-08-07T02:39:37;0.70;;;0.70;;
33357;SDS011;19717;42.614;23.418;2023-08-07T02:42:03;0.57;;;0.57;;
33357;SDS011;19717;42.614;23.418;2023-08-07T02:44:29;0.60;;;0.60;;
33357;SDS011;19717;42.614;23.418;2023-08-07T02:46:55;0.63;;;0.63;;
33357;SDS011;19717;42.614;23.418;2023-08-07T02:49:21;0.80;;;0.80;;
33357;SDS011;19717;42.614;23.418;2023-08-07T02:51:50;2.25;;;0.80;;
33357;SDS011;19717;42.614;23.418;2023-08-07T02:54:16;0.70;;;0.70;;
33357;SDS011;19717;42.614;23.418;2023-08-07T02:56:44;0.65;;;0.65;;
33357;SDS011;19717;42.614;23.418;2023-08-07T02:59:11;0.60;;;0.60;;
33357;SDS011;19717;42.614;23.418;2023-08-07T03:01:37;0.80;;;0.80;;
33357;SDS011;19717;42.614;23.418;2023-08-07T03:04:03;0.88;;;0.70;;
33357;SDS011;19717;42.614;23.418;2023-08-07T03:06:29;0.60;;;0.60;;
33357;SDS011;19717;42.614;23.418;2023-08-07T03:08:55;1.55;;;0.65;;
33357;SDS011;19717;42.614;23.418;2023-08-07T03:11:21;0.80;;;0.80;;
33357;SDS011;19717;42.614;23.418;2023-08-07T03:13:47;0.70;;;0.70;;
33357;SDS011;19717;42.614;23.418;2023-08-07T03:16:14;0.73;;;0.73;;
33357;SDS011;19717;42.614;23.418;2023-08-07T03:18:40;0.80;;;0.80;;
33357;SDS011;19717;42.614;23.418;2023-08-07T03:21:06;0.60;;;0.60;;
33357;SDS011;19717;42.614;23.418;2023-08-07T03:23:32;0.70;;;0.70;;
33357;SDS011;19717;42.614;23.418;2023-08-07T03:26:05;0.70;;;0.70;;
33357;SDS011;19717;42.614;23.418;2023-08-07T03:28:31;0.80;;;0.80;;
33357;SDS011;19717;42.614;23.418;2023-08-07T03:30:57;0.60;;;0.60;;
33357;SDS011;19717;42.614;23.418;2023-08-07T03:33:23;0.70;;;0.70;;
33357;SDS011;19717;42.614;23.418;2023-08-07T03:35:49;0.82;;;0.60;;
33357;SDS011;19717;42.614;23.418;2023-08-07T03:38:18;0.57;;;0.50;;
33357;SDS011;19717;42.614;23.418;2023-08-07T03:40:44;0.50;;;0.50;;
33357;SDS011;19717;42.614;23.418;2023-08-07T03:43:10;1.95;;;0.57;;
33357;SDS011;19717;42.614;23.418;2023-08-07T03:45:36;0.60;;;0.60;;
33357;SDS011;19717;42.614;23.418;2023-08-07T03:48:02;0.50;;;0.50;;
33357;SDS011;19717;42.614;23.418;2023-08-07T03:50:28;0.70;;;0.70;;
33357;SDS011;19717;42.614;23.418;2023-08-07T03:52:56;0.63;;;0.63;;
33357;SDS011;19717;42.614;23.418;2023-08-07T03:55:22;0.80;;;0.80;;
33357;SDS011;19717;42.614;23.418;2023-08-07T03:57:48;0.80;;;0.80;;
33357;SDS011;19717;42.614;23.418;2023-08-07T04:00:14;0.60;;;0.60;;
33357;SDS011;19717;42.614;23.418;2023-08-07T04:02:40;0.65;;;0.65;;
33357;SDS011;19717;42.614;23.418;2023-08-07T04:05:06;0.60;;;0.60;;
33357;SDS011;19717;42.614;23.418;2023-08-07T04:07:32;0.70;;;0.70;;
33357;SDS011;19717;42.614;23.418;2023-08-07T04:09:58;0.63;;;0.60;;
33357;SDS011;19717;42.614;23.418;2023-08-07T04:12:24;1.55;;;0.50;;
33357;SDS011;19717;42.614;23.418;2023-08-07T04:14:50;0.60;;;0.60;;
33357;SDS011;19717;42.614;23.418;2023-08-07T04:17:17;0.60;;;0.60;;
33357;SDS011;19717;42.614;23.418;2023-08-07T04:19:46;0.52;;;0.52;;
33357;SDS011;19717;42.614;23.418;2023-08-07T04:22:12;0.65;;;0.65;;
33357;SDS011;19717;42.614;23.418;2023-08-07T04:24:38;0.60;;;0.60;;
33357;SDS011;19717;42.614;23.418;2023-08-07T04:27:04;0.60;;;0.60;;
33357;SDS011;19717;42.614;23.418;2023-08-07T04:29:30;0.70;;;0.60;;
33357;SDS011;19717;42.614;23.418;2023-08-07T04:31:56;0.60;;;0.60;;
33357;SDS011;19717;42.614;23.418;2023-08-07T04:34:22;0.65;;;0.65;;
33357;SDS011;19717;42.614;23.418;2023-08-07T04:36:48;0.60;;;0.60;;
33357;SDS011;19717;42.614;23.418;2023-08-07T04:39:16;0.50;;;0.50;;
33357;SDS011;19717;42.614;23.418;2023-08-07T04:41:43;0.63;;;0.55;;
33357;SDS011;19717;42.614;23.418;2023-08-07T04:44:09;0.60;;;0.60;;
33357;SDS011;19717;42.614;23.418;2023-08-07T04:46:35;0.60;;;0.60;;
33357;SDS011;19717;42.614;23.418;2023-08-07T04:49:01;0.52;;;0.52;;
33357;SDS011;19717;42.614;23.418;2023-08-07T04:51:28;0.80;;;0.50;;
33357;SDS011;19717;42.614;23.418;2023-08-07T04:53:55;0.63;;;0.60;;
33357;SDS011;19717;42.614;23.418;2023-08-07T04:56:21;0.50;;;0.50;;
33357;SDS011;19717;42.614;23.418;2023-08-07T04:58:47;1.95;;;0.60;;
33357;SDS011;19717;42.614;23.418;2023-08-07T05:01:13;0.50;;;0.50;;
33357;SDS011;19717;42.614;23.418;2023-08-07T05:03:40;0.73;;;0.70;;
33357;SDS011;19717;42.614;23.418;2023-08-07T05:06:06;0.60;;;0.60;;
33357;SDS011;19717;42.614;23.418;2023-08-07T05:08:32;0.60;;;0.60;;
33357;SDS011;19717;42.614;23.418;2023-08-07T05:10:58;0.60;;;0.60;;
33357;SDS011;19717;42.614;23.418;2023-08-07T05:13:24;0.60;;;0.60;;
33357;SDS011;19717;42.614;23.418;2023-08-07T05:15:50;0.50;;;0.50;;
33357;SDS011;19717;42.614;23.418;2023-08-07T05:18:16;0.50;;;0.50;;
33357;SDS011;19717;42.614;23.418;2023-08-07T05:20:42;0.50;;;0.50;;
33357;SDS011;19717;42.614;23.418;2023-08-07T05:23:08;0.60;;;0.60;;
33357;SDS011;19717;42.614;23.418;2023-08-07T05:25:36;0.50;;;0.50;;
33357;SDS011;19717;42.614;23.418;2023-08-07T05:28:02;0.60;;;0.60;;
33357;SDS011;19717;42.614;23.418;2023-08-07T05:30:28;0.50;;;0.50;;
33357;SDS011;19717;42.614;23.418;2023-08-07T05:32:54;0.55;;;0.55;;
33357;SDS011;19717;42.614;23.418;2023-08-07T05:35:20;0.60;;;0.60;;
33357;SDS011;19717;42.614;23.418;2023-08-07T05:37:46;0.50;;;0.50;;
33357;SDS011;19717;42.614;23.418;2023-08-07T05:40:12;0.50;;;0.50;;
33357;SDS011;19717;42.614;23.418;2023-08-07T05:42:38;0.60;;;0.60;;
33357;SDS011;19717;42.614;23.418;2023-08-07T05:45:05;0.65;;;0.60;;
33357;SDS011;19717;42.614;23.418;2023-08-07T05:47:32;0.50;;;0.50;;
33357;SDS011;19717;42.614;23.418;2023-08-07T05:49:58;1.48;;;0.50;;
33357;SDS011;19717;42.614;23.418;2023-08-07T05:52:24;0.60;;;0.60;;
33357;SDS011;19717;42.614;23.418;2023-08-07T05:54:50;0.50;;;0.50;;
33357;SDS011;19717;42.614;23.418;2023-08-07T05:57:17;0.50;;;0.50;;
33357;SDS011;19717;42.614;23.418;2023-08-07T05:59:43;0.40;;;0.40;;
33357;SDS011;19717;42.614;23.418;2023-08-07T06:02:09;0.45;;;0.45;;
33357;SDS011;19717;42.614;23.418;2023-08-07T06:04:38;0.50;;;0.50;;
33357;SDS011;19717;42.614;23.418;2023-08-07T06:07:05;0.43;;;0.43;;
33357;SDS011;19717;42.614;23.418;2023-08-07T06:09:32;0.82;;;0.50;;
33357;SDS011;19717;42.614;23.418;2023-08-07T06:11:58;0.60;;;0.60;;
33357;SDS011;19717;42.614;23.418;2023-08-07T06:14:24;0.40;;;0.40;;
33357;SDS011;19717;42.614;23.418;2023-08-07T06:16:51;0.40;;;0.40;;
33357;SDS011;19717;42.614;23.418;2023-08-07T06:19:17;0.40;;;0.40;;
33357;SDS011;19717;42.614;23.418;2023-08-07T06:21:43;0.40;;;0.40;;
33357;SDS011;19717;42.614;23.418;2023-08-07T06:24:09;0.40;;;0.40;;
33357;SDS011;19717;42.614;23.418;2023-08-07T06:26:35;0.50;;;0.50;;
33357;SDS011;19717;42.614;23.418;2023-08-07T06:29:01;0.40;;;0.40;;
33357;SDS011;19717;42.614;23.418;2023-08-07T06:31:27;0.40;;;0.40;;
33357;SDS011;19717;42.614;23.418;2023-08-07T06:33:53;1.38;;;0.80;;
33357;SDS011;19717;42.614;23.418;2023-08-07T06:36:19;0.35;;;0.35;;
33357;SDS011;19717;42.614;23.418;2023-08-07T06:38:45;0.40;;;0.40;;
33357;SDS011;19717;42.614;23.418;2023-08-07T06:41:12;0.50;;;0.50;;
33357;SDS011;19717;42.614;23.418;2023-08-07T06:43:38;0.90;;;0.60;;
33357;SDS011;19717;42.614;23.418;2023-08-07T06:46:04;0.47;;;0.47;;
33357;SDS011;19717;42.614;23.418;2023-08-07T06:48:30;0.47;;;0.47;;
33357;SDS011;19717;42.614;23.418;2023-08-07T06:50:56;0.50;;;0.40;;
33357;SDS011;19717;42.614;23.418;2023-08-07T06:53:22;0.40;;;0.40;;
33357;SDS011;19717;42.614;23.418;2023-08-07T06:55:48;0.40;;;0.40;;
33357;SDS011;19717;42.614;23.418;2023-08-07T06:58:14;0.40;;;0.40;;
33357;SDS011;19717;42.614;23.418;2023-08-07T07:00:40;2.20;;;0.55;;
33357;SDS011;19717;42.614;23.418;2023-08-07T07:03:06;0.43;;;0.30;;
33357;SDS011;19717;42.614;23.418;2023-08-07T07:05:34;0.43;;;0.43;;
33357;SDS011;19717;42.614;23.418;2023-08-07T07:08:00;0.30;;;0.30;;
33357;SDS011;19717;42.614;23.418;2023-08-07T07:10:26;0.30;;;0.30;;
33357;SDS011;19717;42.614;23.418;2023-08-07T07:12:52;0.60;;;0.40;;
33357;SDS011;19717;42.614;23.418;2023-08-07T07:15:18;0.30;;;0.30;;
33357;SDS011;19717;42.614;23.418;2023-08-07T07:17:45;0.40;;;0.40;;
33357;SDS011;19717;42.614;23.418;2023-08-07T07:20:11;0.30;;;0.30;;
33357;SDS011;19717;42.614;23.418;2023-08-07T07:22:37;0.30;;;0.30;;
33357;SDS011;19717;42.614;23.418;2023-08-07T07:25:03;0.30;;;0.30;;
33357;SDS011;19717;42.614;23.418;2023-08-07T07:27:30;0.30;;;0.30;;
33357;SDS011;19717;42.614;23.418;2023-08-07T07:29:56;0.30;;;0.30;;
33357;SDS011;19717;42.614;23.418;2023-08-07T07:32:22;0.30;;;0.30;;
33357;SDS011;19717;42.614;23.418;2023-08-07T07:34:49;0.30;;;0.30;;
33357;SDS011;19717;42.614;23.418;2023-08-07T07:37:15;0.38;;;0.38;;
33357;SDS011;19717;42.614;23.418;2023-08-07T07:39:42;0.40;;;0.32;;
33357;SDS011;19717;42.614;23.418;2023-08-07T07:42:08;0.30;;;0.30;;
33357;SDS011;19717;42.614;23.418;2023-08-07T07:44:34;0.40;;;0.30;;
33357;SDS011;19717;42.614;23.418;2023-08-07T07:47:08;0.30;;;0.30;;
33357;SDS011;19717;42.614;23.418;2023-08-07T07:49:35;0.30;;;0.30;;
33357;SDS011;19717;42.614;23.418;2023-08-07T07:52:01;0.30;;;0.30;;
33357;SDS011;19717;42.614;23.418;2023-08-07T07:54:28;0.30;;;0.30;;
33357;SDS011;19717;42.614;23.418;2023-08-07T07:56:54;0.38;;;0.30;;
33357;SDS011;19717;42.614;23.418;2023-08-07T07:59:20;0.30;;;0.30;;
33357;SDS011;19717;42.614;23.418;2023-08-07T08:01:46;0.60;;;0.30;;
33357;SDS011;19717;42.614;23.418;2023-08-07T08:04:12;0.30;;;0.30;;
33357;SDS011;19717;42.614;23.418;2023-08-07T08:06:39;0.30;;;0.30;;
33357;SDS011;19717;42.614;23.418;2023-08-07T08:09:05;0.30;;;0.30;;
33357;SDS011;19717;42.614;23.418;2023-08-07T08:11:34;0.32;;;0.32;;
33357;SDS011;19717;42.614;23.418;2023-08-07T08:14:00;0.73;;;0.40;;
33357;SDS011;19717;42.614;23.418;2023-08-07T08:16:26;0.30;;;0.30;;
33357;SDS011;19717;42.614;23.418;2023-08-07T08:18:55;0.30;;;0.30;;
33357;SDS011;19717;42.614;23.418;2023-08-07T08:21:24;0.30;;;0.30;;
33357;SDS011;19717;42.614;23.418;2023-08-07T08:23:50;0.30;;;0.30;;
33357;SDS011;19717;42.614;23.418;2023-08-07T08:26:16;0.38;;;0.38;;
33357;SDS011;19717;42.614;23.418;2023-08-07T08:28:42;0.68;;;0.30;;
33357;SDS011;19717;42.614;23.418;2023-08-07T08:31:08;0.30;;;0.30;;
33357;SDS011;19717;42.614;23.418;2023-08-07T08:33:36;0.30;;;0.30;;
33357;SDS011;19717;42.614;23.418;2023-08-07T08:36:07;2.00;;;0.47;;
33357;SDS011;19717;42.614;23.418;2023-08-07T08:38:33;0.40;;;0.40;;
33357;SDS011;19717;42.614;23.418;2023-08-07T08:41:01;0.35;;;0.35;;
33357;SDS011;19717;42.614;23.418;2023-08-07T08:43:29;0.75;;;0.30;;
33357;SDS011;19717;42.614;23.418;2023-08-07T08:46:01;0.30;;;0.30;;
33357;SDS011;19717;42.614;23.418;2023-08-07T08:48:27;0.75;;;0.30;;
33357;SDS011;19717;42.614;23.418;2023-08-07T08:50:55;0.30;;;0.30;;
33357;SDS011;19717;42.614;23.418;2023-08-07T08:53:21;0.30;;;0.30;;
33357;SDS011;19717;42.614;23.418;2023-08-07T08:55:49;0.38;;;0.38;;
33357;SDS011;19717;42.614;23.418;2023-08-07T08:58:16;0.30;;;0.30;;
33357;SDS011;19717;42.614;23.418;2023-08-07T09:00:42;0.30;;;0.30;;
33357;SDS011;19717;42.614;23.418;2023-08-07T09:03:08;0.28;;;0.28;;
33357;SDS011;19717;42.614;23.418;2023-08-07T09:05:34;0.30;;;0.30;;
33357;SDS011;19717;42.614;23.418;2023-08-07T09:08:01;0.20;;;0.20;;
33357;SDS011;19717;42.614;23.418;2023-08-07T09:10:30;0.40;;;0.40;;
33357;SDS011;19717;42.614;23.418;2023-08-07T09:13:03;0.40;;;0.40;;
33357;SDS011;19717;42.614;23.418;2023-08-07T09:15:32;0.57;;;0.40;;
33357;SDS011;19717;42.614;23.418;2023-08-07T09:17:58;0.47;;;0.35;;
33357;SDS011;19717;42.614;23.418;2023-08-07T09:20:25;0.90;;;0.50;;
33357;SDS011;19717;42.614;23.418;2023-08-07T09:22:51;0.40;;;0.40;;
33357;SDS011;19717;42.614;23.418;2023-08-07T09:25:36;0.68;;;0.40;;
33357;SDS011;19717;42.614;23.418;2023-08-07T09:28:02;0.38;;;0.38;;
33357;SDS011;19717;42.614;23.418;2023-08-07T09:30:29;1.05;;;0.20;;
33357;SDS011;19717;42.614;23.418;2023-08-07T09:33:01;0.35;;;0.30;;
33357;SDS011;19717;42.614;23.418;2023-08-07T09:35:28;0.20;;;0.20;;
33357;SDS011;19717;42.614;23.418;2023-08-07T09:37:56;0.55;;;0.40;;
33357;SDS011;19717;42.614;23.418;2023-08-07T09:40:22;0.75;;;0.30;;
33357;SDS011;19717;42.614;23.418;2023-08-07T09:42:52;0.20;;;0.20;;
33357;SDS011;19717;42.614;23.418;2023-08-07T09:47:45;0.43;;;0.30;;
33357;SDS011;19717;42.614;23.418;2023-08-07T09:50:17;0.30;;;0.30;;
33357;SDS011;19717;42.614;23.418;2023-08-07T09:52:46;0.30;;;0.30;;
33357;SDS011;19717;42.614;23.418;2023-08-07T09:55:12;0.30;;;0.30;;
33357;SDS011;19717;42.614;23.418;2023-08-07T09:57:41;0.20;;;0.20;;
33357;SDS011;19717;42.614;23.418;2023-08-07T10:00:08;0.20;;;0.20;;
33357;SDS011;19717;42.614;23.418;2023-08-07T10:02:37;0.30;;;0.30;;
33357;SDS011;19717;42.614;23.418;2023-08-07T10:05:06;0.40;;;0.40;;
33357;SDS011;19717;42.614;23.418;2023-08-07T10:07:33;0.30;;;0.30;;
33357;SDS011;19717;42.614;23.418;2023-08-07T10:10:00;0.30;;;0.30;;
33357;SDS011;19717;42.614;23.418;2023-08-07T10:12:26;0.20;;;0.20;;
33357;SDS011;19717;42.614;23.418;2023-08-07T10:14:53;0.30;;;0.30;;
33357;SDS011;19717;42.614;23.418;2023-08-07T10:17:21;0.55;;;0.25;;
33357;SDS011;19717;42.614;23.418;2023-08-07T10:19:48;0.30;;;0.30;;
33357;SDS011;19717;42.614;23.418;2023-08-07T10:22:15;0.30;;;0.30;;
33357;SDS011;19717;42.614;23.418;2023-08-07T10:24:42;0.30;;;0.30;;
33357;SDS011;19717;42.614;23.418;2023-08-07T10:27:09;1.63;;;0.30;;
33357;SDS011;19717;42.614;23.418;2023-08-07T10:29:35;0.40;;;0.30;;
33357;SDS011;19717;42.614;23.418;2023-08-07T10:32:02;0.30;;;0.30;;
33357;SDS011;19717;42.614;23.418;2023-08-07T10:34:29;0.20;;;0.20;;
33357;SDS011;19717;42.614;23.418;2023-08-07T10:36:55;0.30;;;0.30;;
33357;SDS011;19717;42.614;23.418;2023-08-07T10:39:21;0.55;;;0.40;;
33357;SDS011;19717;42.614;23.418;2023-08-07T10:41:49;0.30;;;0.30;;
33357;SDS011;19717;42.614;23.418;2023-08-07T10:44:18;0.20;;;0.20;;
33357;SDS011;19717;42.614;23.418;2023-08-07T10:46:48;0.22;;;0.22;;
33357;SDS011;19717;42.614;23.418;2023-08-07T10:51:57;0.20;;;0.20;;
33357;SDS011;19717;42.614;23.418;2023-08-07T10:54:24;0.40;;;0.40;;
33357;SDS011;19717;42.614;23.418;2023-08-07T10:56:53;0.30;;;0.30;;
33357;SDS011;19717;42.614;23.418;2023-08-07T10:59:20;0.30;;;0.30;;
33357;SDS011;19717;42.614;23.418;2023-08-07T11:01:50;0.30;;;0.30;;
33357;SDS011;19717;42.614;23.418;2023-08-07T11:04:17;0.77;;;0.25;;
33357;SDS011;19717;42.614;23.418;2023-08-07T11:06:43;0.20;;;0.20;;
33357;SDS011;19717;42.614;23.418;2023-08-07T11:09:12;0.30;;;0.30;;
33357;SDS011;19717;42.614;23.418;2023-08-07T11:11:47;0.28;;;0.28;;
33357;SDS011;19717;42.614;23.418;2023-08-07T11:14:17;0.20;;;0.20;;
33357;SDS011;19717;42.614;23.418;2023-08-07T11:16:44;0.20;;;0.20;;
33357;SDS011;19717;42.614;23.418;2023-08-07T11:19:11;0.28;;;0.28;;
33357;SDS011;19717;42.614;23.418;2023-08-07T11:21:37;0.20;;;0.20;;
33357;SDS011;19717;42.614;23.418;2023-08-07T11:24:03;0.30;;;0.30;;
33357;SDS011;19717;42.614;23.418;2023-08-07T11:26:29;0.30;;;0.30;;
33357;SDS011;19717;42.614;23.418;2023-08-07T11:28:55;0.20;;;0.20;;
33357;SDS011;19717;42.614;23.418;2023-08-07T11:31:22;0.35;;;0.20;;
33357;SDS011;19717;42.614;23.418;2023-08-07T11:33:53;0.28;;;0.28;;
33357;SDS011;19717;42.614;23.418;2023-08-07T11:36:20;0.20;;;0.20;;
33357;SDS011;19717;42.614;23.418;2023-08-07T11:38:46;0.20;;;0.20;;
33357;SDS011;19717;42.614;23.418;2023-08-07T11:41:13;0.20;;;0.20;;
33357;SDS011;19717;42.614;23.418;2023-08-07T11:43:40;0.30;;;0.30;;
33357;SDS011;19717;42.614;23.418;2023-08-07T11:46:07;0.20;;;0.20;;
33357;SDS011;19717;42.614;23.418;2023-08-07T11:48:34;0.30;;;0.30;;
33357;SDS011;19717;42.614;23.418;2023-08-07T11:51:00;0.45;;;0.20;;
33357;SDS011;19717;42.614;23.418;2023-08-07T11:53:28;0.20;;;0.20;;
33357;SDS011;19717;42.614;23.418;2023-08-07T11:55:58;0.20;;;0.20;;
33357;SDS011;19717;42.614;23.418;2023-08-07T11:58:25;1.50;;;0.30;;
33357;SDS011;19717;42.614;23.418;2023-08-07T12:00:51;0.20;;;0.20;;
33357;SDS011;19717;42.614;23.418;2023-08-07T12:03:30;0.30;;;0.30;;
33357;SDS011;19717;42.614;23.418;2023-08-07T12:05:57;0.20;;;0.20;;
33357;SDS011;19717;42.614;23.418;2023-08-07T12:08:24;0.40;;;0.20;;
33357;SDS011;19717;42.614;23.418;2023-08-07T12:10:51;0.43;;;0.25;;
33357;SDS011;19717;42.614;23.418;2023-08-07T12:13:25;0.65;;;0.30;;
33357;SDS011;19717;42.614;23.418;2023-08-07T12:15:55;0.28;;;0.28;;
33357;SDS011;19717;42.614;23.418;2023-08-07T12:18:23;0.30;;;0.30;;
33357;SDS011;19717;42.614;23.418;2023-08-07T12:20:50;0.30;;;0.30;;
33357;SDS011;19717;42.614;23.418;2023-08-07T12:23:17;0.30;;;0.30;;
33357;SDS011;19717;42.614;23.418;2023-08-07T12:25:43;0.80;;;0.25;;
33357;SDS011;19717;42.614;23.418;2023-08-07T12:28:09;1.25;;;0.30;;
33357;SDS011;19717;42.614;23.418;2023-08-07T12:30:37;0.30;;;0.30;;
33357;SDS011;19717;42.614;23.418;2023-08-07T12:33:04;0.30;;;0.30;;
33357;SDS011;19717;42.614;23.418;2023-08-07T12:35:30;0.85;;;0.30;;
33357;SDS011;19717;42.614;23.418;2023-08-07T12:37:57;0.20;;;0.20;;
33357;SDS011;19717;42.614;23.418;2023-08-07T12:40:23;0.30;;;0.30;;
33357;SDS011;19717;42.614;23.418;2023-08-07T12:42:49;0.38;;;0.30;;
33357;SDS011;19717;42.614;23.418;2023-08-07T12:45:16;0.93;;;0.20;;
33357;SDS011;19717;42.614;23.418;2023-08-07T12:47:44;0.40;;;0.30;;
33357;SDS011;19717;42.614;23.418;2023-08-07T12:50:10;0.30;;;0.30;;
33357;SDS011;19717;42.614;23.418;2023-08-07T12:52:40;0.30;;;0.30;;
33357;SDS011;19717;42.614;23.418;2023-08-07T12:55:06;0.73;;;0.43;;
33357;SDS011;19717;42.614;23.418;2023-08-07T12:57:36;0.30;;;0.30;;
33357;SDS011;19717;42.614;23.418;2023-08-07T13:00:03;0.70;;;0.28;;
33357;SDS011;19717;42.614;23.418;2023-08-07T13:02:29;0.20;;;0.20;;
33357;SDS011;19717;42.614;23.418;2023-08-07T13:04:55;0.30;;;0.30;;
33357;SDS011;19717;42.614;23.418;2023-08-07T13:07:22;0.25;;;0.25;;
33357;SDS011;19717;42.614;23.418;2023-08-07T13:09:50;0.32;;;0.30;;
33357;SDS011;19717;42.614;23.418;2023-08-07T13:12:16;0.20;;;0.20;;
33357;SDS011;19717;42.614;23.418;2023-08-07T13:14:42;0.30;;;0.30;;
33357;SDS011;19717;42.614;23.418;2023-08-07T13:17:08;0.25;;;0.22;;
33357;SDS011;19717;42.614;23.418;2023-08-07T13:19:34;0.40;;;0.30;;
33357;SDS011;19717;42.614;23.418;2023-08-07T13:22:00;0.40;;;0.40;;
33357;SDS011;19717;42.614;23.418;2023-08-07T13:24:26;0.30;;;0.30;;
33357;SDS011;19717;42.614;23.418;2023-08-07T13:26:52;0.30;;;0.30;;
33357;SDS011;19717;42.614;23.418;2023-08-07T13:29:18;0.43;;;0.32;;
33357;SDS011;19717;42.614;23.418;2023-08-07T13:31:47;0.40;;;0.30;;
33357;SDS011;19717;42.614;23.418;2023-08-07T13:34:13;2.08;;;0.40;;
33357;SDS011;19717;42.614;23.418;2023-08-07T13:36:39;0.30;;;0.30;;
33357;SDS011;19717;42.614;23.418;2023-08-07T13:39:05;0.30;;;0.30;;
33357;SDS011;19717;42.614;23.418;2023-08-07T13:41:32;0.38;;;0.30;;
33357;SDS011;19717;42.614;23.418;2023-08-07T13:43:58;0.60;;;0.30;;
33357;SDS011;19717;42.614;23.418;2023-08-07T13:46:25;0.30;;;0.30;;
33357;SDS011;19717;42.614;23.418;2023-08-07T13:48:51;0.25;;;0.25;;
33357;SDS011;19717;42.614;23.418;2023-08-07T13:51:17;0.55;;;0.30;;
33357;SDS011;19717;42.614;23.418;2023-08-07T13:53:43;0.30;;;0.30;;
33357;SDS011;19717;42.614;23.418;2023-08-07T13:56:10;0.20;;;0.20;;
33357;SDS011;19717;42.614;23.418;2023-08-07T13:58:39;0.25;;;0.25;;
33357;SDS011;19717;42.614;23.418;2023-08-07T14:01:05;0.70;;;0.30;;
33357;SDS011;19717;42.614;23.418;2023-08-07T14:03:31;0.52;;;0.30;;
33357;SDS011;19717;42.614;23.418;2023-08-07T14:05:57;0.20;;;0.20;;
33357;SDS011;19717;42.614;23.418;2023-08-07T14:08:23;0.20;;;0.20;;
33357;SDS011;19717;42.614;23.418;2023-08-07T14:10:50;0.20;;;0.20;;
33357;SDS011;19717;42.614;23.418;2023-08-07T14:13:16;0.30;;;0.30;;
33357;SDS011;19717;42.614;23.418;2023-08-07T14:15:42;1.55;;;0.30;;
33357;SDS011;19717;42.614;23.418;2023-08-07T14:18:08;0.20;;;0.20;;
33357;SDS011;19717;42.614;23.418;2023-08-07T14:20:36;0.30;;;0.30;;
33357;SDS011;19717;42.614;23.418;2023-08-07T14:23:14;0.30;;;0.30;;
33357;SDS011;19717;42.614;23.418;2023-08-07T14:25:40;1.00;;;0.30;;
33357;SDS011;19717;42.614;23.418;2023-08-07T14:28:06;1.85;;;0.30;;
33357;SDS011;19717;42.614;23.418;2023-08-07T14:30:33;0.20;;;0.20;;
33357;SDS011;19717;42.614;23.418;2023-08-07T14:32:59;0.30;;;0.30;;
33357;SDS011;19717;42.614;23.418;2023-08-07T14:35:25;0.30;;;0.30;;
33357;SDS011;19717;42.614;23.418;2023-08-07T14:37:51;0.55;;;0.38;;